Time,TemperatureF,DewpointF,PressureIn,WindDirection,WindDirectionDegrees,WindSpeedMPH,WindSpeedGustMPH,Humidity,HourlyPrecipIn,Conditions,Clouds,dailyrainin,SoftwareType,DateUTC
2013-04-15 00:00:00,50.1,45.8,29.49,WNW,292,0.0,4.0,85,0.02,,---,0.01,VWS V14.00,2013-04-15 05:00:00,
2013-04-15 00:05:00,49.6,45.9,29.49,WNW,292,0.0,2.0,87,0.03,,---,0.02,VWS V14.00,2013-04-15 05:05:00,
2013-04-15 00:10:00,49.0,45.6,29.50,WNW,292,1.0,3.0,88,0.04,,---,0.03,VWS V14.00,2013-04-15 05:10:00,
2013-04-15 00:15:00,48.3,45.2,29.50,WNW,292,1.0,6.0,89,0.06,,---,0.05,VWS V14.00,2013-04-15 05:15:00,
2013-04-15 00:20:00,47.7,44.9,29.50,WNW,292,1.0,5.0,90,0.09,,---,0.08,VWS V14.00,2013-04-15 05:20:00,
2013-04-15 00:25:00,47.4,44.9,29.51,WNW,292,0.0,1.0,91,0.12,,---,0.11,VWS V14.00,2013-04-15 05:25:00,
2013-04-15 00:30:00,47.1,44.9,29.51,WNW,292,0.0,4.0,92,0.14,,---,0.13,VWS V14.00,2013-04-15 05:30:00,
2013-04-15 00:35:00,46.8,44.6,29.51,WNW,292,0.0,1.0,92,0.15,,---,0.14,VWS V14.00,2013-04-15 05:35:00,
2013-04-15 00:40:00,46.6,44.4,29.52,WNW,292,0.0,1.0,92,0.17,,---,0.16,VWS V14.00,2013-04-15 05:40:00,
2013-04-15 00:45:00,46.4,44.5,29.51,WNW,292,0.0,1.0,93,0.18,,---,0.17,VWS V14.00,2013-04-15 05:45:00,
2013-04-15 00:50:00,46.3,44.4,29.51,WNW,292,0.0,0.0,93,0.19,,---,0.18,VWS V14.00,2013-04-15 05:50:00,
2013-04-15 00:55:00,46.2,44.3,29.52,WNW,292,0.0,1.0,93,0.20,,---,0.19,VWS V14.00,2013-04-15 05:55:00,
2013-04-15 01:00:00,46.3,44.7,29.53,WNW,292,0.0,1.0,94,0.21,,---,0.21,VWS V14.00,2013-04-15 06:00:00,
2013-04-15 01:05:00,46.3,45.0,29.54,WNW,292,0.0,3.0,95,0.23,,---,0.24,VWS V14.00,2013-04-15 06:05:00,
2013-04-15 01:10:00,46.1,44.8,29.53,WNW,292,0.0,0.0,95,0.25,,---,0.27,VWS V14.00,2013-04-15 06:10:00,
2013-04-15 01:15:00,46.0,44.7,29.53,WNW,292,0.0,1.0,95,0.27,,---,0.30,VWS V14.00,2013-04-15 06:15:00,
2013-04-15 01:20:00,46.0,44.7,29.53,WNW,292,0.0,0.0,95,0.26,,---,0.31,VWS V14.00,2013-04-15 06:20:00,
2013-04-15 01:25:00,45.9,44.5,29.53,WNW,292,0.0,0.0,95,0.24,,---,0.32,VWS V14.00,2013-04-15 06:25:00,
2013-04-15 01:30:00,45.8,44.5,29.53,WNW,292,0.0,0.0,95,0.21,,---,0.32,VWS V14.00,2013-04-15 06:30:00,
2013-04-15 01:35:00,45.8,44.5,29.54,WNW,292,0.0,0.0,95,0.19,,---,0.32,VWS V14.00,2013-04-15 06:35:00,
2013-04-15 01:40:00,45.8,44.5,29.54,WNW,292,0.0,1.0,95,0.19,,---,0.33,VWS V14.00,2013-04-15 06:40:00,
2013-04-15 01:45:00,45.7,44.3,29.54,WNW,292,0.0,0.0,95,0.19,,---,0.35,VWS V14.00,2013-04-15 06:45:00,
2013-04-15 01:50:00,45.7,44.3,29.54,WNW,292,0.0,0.0,95,0.20,,---,0.37,VWS V14.00,2013-04-15 06:50:00,
2013-04-15 01:55:00,45.7,44.3,29.53,WNW,292,0.0,0.0,95,0.20,,---,0.38,VWS V14.00,2013-04-15 06:55:00,
2013-04-15 02:00:00,45.8,44.7,29.53,WNW,292,0.0,0.0,96,0.19,,---,0.38,VWS V14.00,2013-04-15 07:00:00,
2013-04-15 02:05:00,45.8,44.7,29.53,WNW,292,0.0,0.0,96,0.17,,---,0.38,VWS V14.00,2013-04-15 07:05:00,
2013-04-15 02:10:00,45.8,44.7,29.53,WNW,292,0.0,0.0,96,0.14,,---,0.38,VWS V14.00,2013-04-15 07:10:00,
2013-04-15 02:15:00,45.7,44.6,29.53,WNW,292,0.0,0.0,96,0.11,,---,0.38,VWS V14.00,2013-04-15 07:15:00,
2013-04-15 02:20:00,45.7,44.6,29.53,WNW,292,0.0,1.0,96,0.08,,---,0.38,VWS V14.00,2013-04-15 07:20:00,
2013-04-15 02:25:00,45.7,44.6,29.53,WNW,292,0.0,0.0,96,0.07,,---,0.38,VWS V14.00,2013-04-15 07:25:00,
2013-04-15 02:30:00,45.7,44.6,29.53,WNW,292,0.0,0.0,96,0.06,,---,0.38,VWS V14.00,2013-04-15 07:30:00,
2013-04-15 02:35:00,46.0,44.9,29.53,WNW,292,0.0,1.0,96,0.06,,---,0.38,VWS V14.00,2013-04-15 07:35:00,
2013-04-15 02:40:00,46.4,45.6,29.53,WNW,292,0.0,1.0,97,0.06,,---,0.38,VWS V14.00,2013-04-15 07:40:00,
2013-04-15 02:45:00,47.1,46.3,29.53,WNW,292,0.0,0.0,97,0.05,,---,0.38,VWS V14.00,2013-04-15 07:45:00,
2013-04-15 02:50:00,47.1,46.3,29.54,WNW,292,0.0,0.0,97,0.03,,---,0.38,VWS V14.00,2013-04-15 07:50:00,
2013-04-15 02:55:00,47.4,46.6,29.55,WNW,292,0.0,1.0,97,0.01,,---,0.38,VWS V14.00,2013-04-15 07:55:00,
2013-04-15 03:00:00,47.4,46.6,29.55,WNW,292,0.0,0.0,97,0.00,,---,0.38,VWS V14.00,2013-04-15 08:00:00,
2013-04-15 03:05:00,47.5,46.7,29.56,WNW,292,0.0,1.0,97,0.00,,---,0.38,VWS V14.00,2013-04-15 08:05:00,
2013-04-15 03:10:00,47.7,46.9,29.56,WNW,292,0.0,1.0,97,0.00,,---,0.38,VWS V14.00,2013-04-15 08:10:00,
2013-04-15 03:15:00,47.8,47.0,29.56,WNW,292,0.0,2.0,97,0.00,,---,0.38,VWS V14.00,2013-04-15 08:15:00,
2013-04-15 03:20:00,47.9,47.1,29.56,WNW,292,0.0,1.0,97,0.00,,---,0.38,VWS V14.00,2013-04-15 08:20:00,
2013-04-15 03:25:00,47.8,47.0,29.57,WNW,292,0.0,3.0,97,0.00,,---,0.38,VWS V14.00,2013-04-15 08:25:00,
2013-04-15 03:30:00,47.7,46.9,29.58,WNW,292,0.0,4.0,97,0.00,,---,0.38,VWS V14.00,2013-04-15 08:30:00,
2013-04-15 03:35:00,47.7,46.9,29.57,WNW,292,0.0,0.0,97,0.00,,---,0.38,VWS V14.00,2013-04-15 08:35:00,
2013-04-15 03:40:00,47.8,47.0,29.58,WNW,292,0.0,1.0,97,0.00,,---,0.38,VWS V14.00,2013-04-15 08:40:00,
2013-04-15 03:45:00,47.9,47.1,29.58,WNW,292,0.0,1.0,97,0.00,,---,0.38,VWS V14.00,2013-04-15 08:45:00,
2013-04-15 03:50:00,48.1,47.3,29.59,WNW,292,0.0,1.0,97,0.00,,---,0.38,VWS V14.00,2013-04-15 08:50:00,
2013-04-15 03:55:00,48.3,47.5,29.59,WNW,292,0.0,4.0,97,0.00,,---,0.38,VWS V14.00,2013-04-15 08:55:00,
2013-04-15 04:00:00,48.3,47.5,29.60,WNW,292,0.0,3.0,97,0.00,,---,0.38,VWS V14.00,2013-04-15 09:00:00,
2013-04-15 04:05:00,48.5,47.7,29.60,WNW,292,0.0,3.0,97,0.00,,---,0.38,VWS V14.00,2013-04-15 09:05:00,
2013-04-15 04:10:00,48.4,47.6,29.59,WNW,292,0.0,0.0,97,0.00,,---,0.38,VWS V14.00,2013-04-15 09:10:00,
2013-04-15 04:15:00,48.3,47.5,29.59,WNW,292,0.0,0.0,97,0.00,,---,0.38,VWS V14.00,2013-04-15 09:15:00,
2013-04-15 04:20:00,48.3,47.5,29.60,WNW,292,0.0,1.0,97,0.00,,---,0.38,VWS V14.00,2013-04-15 09:20:00,
2013-04-15 04:25:00,48.1,47.0,29.59,WNW,292,0.0,0.0,96,0.00,,---,0.38,VWS V14.00,2013-04-15 09:25:00,
2013-04-15 04:30:00,47.8,46.7,29.58,WNW,292,0.0,0.0,96,0.00,,---,0.38,VWS V14.00,2013-04-15 09:30:00,
2013-04-15 04:35:00,47.6,46.5,29.59,WNW,292,0.0,1.0,96,0.00,,---,0.38,VWS V14.00,2013-04-15 09:35:00,
2013-04-15 04:40:00,47.6,46.5,29.59,WNW,292,0.0,0.0,96,0.00,,---,0.38,VWS V14.00,2013-04-15 09:40:00,
2013-04-15 04:45:00,47.4,46.3,29.59,WNW,292,0.0,0.0,96,0.00,,---,0.38,VWS V14.00,2013-04-15 09:45:00,
2013-04-15 04:50:00,47.1,46.0,29.59,WNW,292,0.0,0.0,96,0.00,,---,0.38,VWS V14.00,2013-04-15 09:50:00,
2013-04-15 04:55:00,46.7,45.6,29.59,WNW,292,0.0,0.0,96,0.00,,---,0.38,VWS V14.00,2013-04-15 09:55:00,
2013-04-15 05:00:00,46.8,45.7,29.60,WNW,292,0.0,1.0,96,0.00,,---,0.38,VWS V14.00,2013-04-15 10:00:00,
2013-04-15 05:05:00,46.9,45.8,29.60,WNW,292,0.0,0.0,96,0.00,,---,0.38,VWS V14.00,2013-04-15 10:05:00,
2013-04-15 05:10:00,46.9,46.1,29.60,WNW,292,0.0,0.0,97,0.00,,---,0.38,VWS V14.00,2013-04-15 10:10:00,
2013-04-15 05:15:00,46.9,45.8,29.59,WNW,292,0.0,0.0,96,0.00,,---,0.38,VWS V14.00,2013-04-15 10:15:00,
2013-04-15 05:20:00,46.5,45.4,29.60,WNW,292,0.0,0.0,96,0.00,,---,0.38,VWS V14.00,2013-04-15 10:20:00,
2013-04-15 05:25:00,46.3,45.2,29.60,WNW,292,0.0,0.0,96,0.00,,---,0.38,VWS V14.00,2013-04-15 10:25:00,
2013-04-15 05:30:00,46.0,44.9,29.60,WNW,292,0.0,0.0,96,0.00,,---,0.38,VWS V14.00,2013-04-15 10:30:00,
2013-04-15 05:35:00,45.5,44.4,29.60,WNW,292,0.0,0.0,96,0.00,,---,0.38,VWS V14.00,2013-04-15 10:35:00,
2013-04-15 05:40:00,45.1,44.0,29.59,WNW,292,0.0,0.0,96,0.00,,---,0.38,VWS V14.00,2013-04-15 10:40:00,
2013-04-15 05:45:00,45.2,44.1,29.59,WNW,292,0.0,0.0,96,0.00,,---,0.38,VWS V14.00,2013-04-15 10:45:00,
2013-04-15 05:50:00,45.1,44.0,29.59,WNW,292,0.0,0.0,96,0.00,,---,0.38,VWS V14.00,2013-04-15 10:50:00,
2013-04-15 05:55:00,44.9,43.8,29.59,WNW,292,0.0,0.0,96,0.00,,---,0.38,VWS V14.00,2013-04-15 10:55:00,
2013-04-15 06:00:00,44.5,43.4,29.59,WNW,292,0.0,0.0,96,0.00,,---,0.38,VWS V14.00,2013-04-15 11:00:00,
2013-04-15 06:05:00,44.2,43.1,29.59,WNW,292,0.0,0.0,96,0.00,,---,0.38,VWS V14.00,2013-04-15 11:05:00,
2013-04-15 06:10:00,44.2,43.4,29.59,West,270,0.0,1.0,97,0.00,,---,0.38,VWS V14.00,2013-04-15 11:10:00,
2013-04-15 06:15:00,44.7,43.9,29.60,West,270,0.0,1.0,97,0.00,,---,0.38,VWS V14.00,2013-04-15 11:15:00,
2013-04-15 06:20:00,44.6,43.8,29.60,West,270,0.0,0.0,97,0.00,,---,0.38,VWS V14.00,2013-04-15 11:20:00,
2013-04-15 06:25:00,44.0,42.9,29.60,West,270,0.0,0.0,96,0.01,,---,0.39,VWS V14.00,2013-04-15 11:25:00,
2013-04-15 06:30:00,44.0,43.2,29.60,West,270,0.0,0.0,97,0.01,,---,0.39,VWS V14.00,2013-04-15 11:30:00,
2013-04-15 06:35:00,44.7,43.9,29.60,WNW,292,0.0,1.0,97,0.01,,---,0.39,VWS V14.00,2013-04-15 11:35:00,
2013-04-15 06:40:00,44.8,44.0,29.60,WNW,292,0.0,1.0,97,0.01,,---,0.39,VWS V14.00,2013-04-15 11:40:00,
2013-04-15 06:45:00,43.8,42.7,29.61,WNW,292,0.0,0.0,96,0.01,,---,0.39,VWS V14.00,2013-04-15 11:45:00,
2013-04-15 06:50:00,42.4,41.3,29.61,WNW,292,0.0,0.0,96,0.01,,---,0.39,VWS V14.00,2013-04-15 11:50:00,
2013-04-15 06:55:00,42.1,41.0,29.61,WNW,292,0.0,0.0,96,0.01,,---,0.39,VWS V14.00,2013-04-15 11:55:00,
2013-04-15 07:00:00,42.5,41.7,29.61,WNW,292,0.0,0.0,97,0.01,,---,0.39,VWS V14.00,2013-04-15 12:00:00,
2013-04-15 07:05:00,43.2,42.4,29.62,WNW,292,0.0,0.0,97,0.01,,---,0.39,VWS V14.00,2013-04-15 12:05:00,
2013-04-15 07:10:00,43.7,42.9,29.62,WNW,292,0.0,0.0,97,0.01,,---,0.39,VWS V14.00,2013-04-15 12:10:00,
2013-04-15 07:15:00,44.6,44.1,29.62,WNW,292,0.0,0.0,98,0.01,,---,0.39,VWS V14.00,2013-04-15 12:15:00,
2013-04-15 07:20:00,45.7,45.2,29.62,WNW,292,0.0,1.0,98,0.01,,---,0.39,VWS V14.00,2013-04-15 12:20:00,
2013-04-15 07:25:00,46.8,46.3,29.62,WNW,292,0.0,0.0,98,0.01,,---,0.39,VWS V14.00,2013-04-15 12:25:00,
2013-04-15 07:30:00,46.6,45.8,29.63,WNW,292,0.0,0.0,97,0.00,,---,0.39,VWS V14.00,2013-04-15 12:30:00,
2013-04-15 07:35:00,46.6,45.8,29.63,WNW,292,0.0,1.0,97,0.00,,---,0.39,VWS V14.00,2013-04-15 12:35:00,
2013-04-15 07:40:00,46.6,45.8,29.63,WNW,292,0.0,1.0,97,0.00,,---,0.39,VWS V14.00,2013-04-15 12:40:00,
2013-04-15 07:45:00,47.1,46.3,29.63,South,180,1.0,5.0,97,0.00,,---,0.39,VWS V14.00,2013-04-15 12:45:00,
2013-04-15 07:50:00,47.5,46.7,29.63,SSE,158,1.0,4.0,97,0.00,,---,0.39,VWS V14.00,2013-04-15 12:50:00,
2013-04-15 07:55:00,48.1,47.3,29.63,SSE,158,1.0,3.0,97,0.00,,---,0.39,VWS V14.00,2013-04-15 12:55:00,
2013-04-15 08:00:00,49.0,48.2,29.62,SSE,158,0.0,3.0,97,0.00,,---,0.39,VWS V14.00,2013-04-15 13:00:00,
2013-04-15 08:05:00,49.5,48.4,29.62,West,270,1.0,4.0,96,0.00,,---,0.39,VWS V14.00,2013-04-15 13:05:00,
2013-04-15 08:10:00,49.9,48.8,29.63,South,180,1.0,5.0,96,0.00,,---,0.39,VWS V14.00,2013-04-15 13:10:00,
2013-04-15 08:15:00,50.5,49.4,29.62,SSE,158,2.0,6.0,96,0.00,,---,0.39,VWS V14.00,2013-04-15 13:15:00,
2013-04-15 08:20:00,50.4,48.7,29.63,SSE,158,3.0,10.0,94,0.00,,---,0.39,VWS V14.00,2013-04-15 13:20:00,
2013-04-15 08:25:00,50.4,49.0,29.62,South,180,3.0,11.0,95,0.00,,---,0.39,VWS V14.00,2013-04-15 13:25:00,
2013-04-15 08:30:00,50.3,48.6,29.63,South,180,4.0,11.0,94,0.00,,---,0.39,VWS V14.00,2013-04-15 13:30:00,
2013-04-15 08:35:00,50.5,48.8,29.62,South,180,4.0,12.0,94,0.00,,---,0.39,VWS V14.00,2013-04-15 13:35:00,
2013-04-15 08:40:00,50.6,48.9,29.62,South,180,3.0,9.0,94,0.00,,---,0.39,VWS V14.00,2013-04-15 13:40:00,
2013-04-15 08:45:00,50.7,49.0,29.62,SSE,158,3.0,9.0,94,0.00,,---,0.39,VWS V14.00,2013-04-15 13:45:00,
2013-04-15 08:50:00,50.9,49.2,29.62,South,180,3.0,10.0,94,0.00,,---,0.39,VWS V14.00,2013-04-15 13:50:00,
2013-04-15 08:55:00,51.5,49.8,29.63,SSE,158,3.0,10.0,94,0.00,,---,0.39,VWS V14.00,2013-04-15 13:55:00,
2013-04-15 09:00:00,52.1,50.4,29.63,South,180,4.0,12.0,94,0.00,,---,0.39,VWS V14.00,2013-04-15 14:00:00,
2013-04-15 09:05:00,52.5,50.5,29.63,South,180,4.0,11.0,93,0.00,,---,0.39,VWS V14.00,2013-04-15 14:05:00,
2013-04-15 09:10:00,52.6,50.0,29.63,SSW,202,3.0,11.0,91,0.00,,---,0.39,VWS V14.00,2013-04-15 14:10:00,
2013-04-15 09:15:00,52.8,50.5,29.63,South,180,2.0,7.0,92,0.00,,---,0.39,VWS V14.00,2013-04-15 14:15:00,
2013-04-15 09:20:00,53.1,50.2,29.63,South,180,3.0,7.0,90,0.00,,---,0.39,VWS V14.00,2013-04-15 14:20:00,
2013-04-15 09:25:00,53.2,49.4,29.63,South,180,2.0,7.0,87,0.00,,---,0.39,VWS V14.00,2013-04-15 14:25:00,
2013-04-15 09:30:00,53.2,49.1,29.64,South,180,3.0,8.0,86,0.00,,---,0.39,VWS V14.00,2013-04-15 14:30:00,
2013-04-15 09:35:00,53.1,48.4,29.63,South,180,4.0,11.0,84,0.00,,---,0.39,VWS V14.00,2013-04-15 14:35:00,
2013-04-15 09:40:00,53.1,48.4,29.62,South,180,4.0,11.0,84,0.00,,---,0.39,VWS V14.00,2013-04-15 14:40:00,
2013-04-15 09:45:00,53.7,48.3,29.62,South,180,6.0,14.0,82,0.00,,---,0.39,VWS V14.00,2013-04-15 14:45:00,
2013-04-15 09:50:00,54.5,48.1,29.62,South,180,5.0,10.0,79,0.00,,---,0.39,VWS V14.00,2013-04-15 14:50:00,
2013-04-15 09:55:00,55.1,48.4,29.62,SSW,202,5.0,14.0,78,0.00,,---,0.39,VWS V14.00,2013-04-15 14:55:00,
2013-04-15 10:00:00,56.0,48.2,29.61,South,180,4.0,9.0,75,0.00,,---,0.39,VWS V14.00,2013-04-15 15:00:00,
2013-04-15 10:05:00,56.0,44.8,29.62,SSW,202,6.0,13.0,66,0.00,,---,0.39,VWS V14.00,2013-04-15 15:05:00,
2013-04-15 10:10:00,56.3,44.7,29.62,South,180,4.0,15.0,65,0.00,,---,0.39,VWS V14.00,2013-04-15 15:10:00,
2013-04-15 10:15:00,56.1,44.5,29.62,South,180,5.0,20.0,65,0.00,,---,0.39,VWS V14.00,2013-04-15 15:15:00,
2013-04-15 10:20:00,56.3,44.3,29.62,SSW,202,3.0,10.0,64,0.00,,---,0.39,VWS V14.00,2013-04-15 15:20:00,
2013-04-15 10:25:00,56.5,42.8,29.61,South,180,6.0,19.0,60,0.00,,---,0.39,VWS V14.00,2013-04-15 15:25:00,
2013-04-15 10:30:00,56.7,44.7,29.61,SW,225,6.0,18.0,64,0.00,,---,0.39,VWS V14.00,2013-04-15 15:30:00,
2013-04-15 10:35:00,57.2,43.9,29.61,SSW,202,5.0,15.0,61,0.00,,---,0.39,VWS V14.00,2013-04-15 15:35:00,
2013-04-15 10:40:00,57.4,41.8,29.62,South,180,8.0,23.0,56,0.00,,---,0.39,VWS V14.00,2013-04-15 15:40:00,
2013-04-15 10:45:00,57.2,41.7,29.62,South,180,6.0,23.0,56,0.00,,---,0.39,VWS V14.00,2013-04-15 15:45:00,
2013-04-15 10:50:00,57.8,42.2,29.61,SW,225,6.0,16.0,56,0.00,,---,0.39,VWS V14.00,2013-04-15 15:50:00,
2013-04-15 10:55:00,57.9,39.9,29.62,SSW,202,8.0,25.0,51,0.00,,---,0.39,VWS V14.00,2013-04-15 15:55:00,
2013-04-15 11:00:00,58.6,40.5,29.62,SSW,202,4.0,9.0,51,0.00,,---,0.39,VWS V14.00,2013-04-15 16:00:00,
2013-04-15 11:05:00,58.7,36.9,29.62,SSW,202,5.0,18.0,44,0.00,,---,0.39,VWS V14.00,2013-04-15 16:05:00,
2013-04-15 11:10:00,58.8,39.2,29.62,SSE,158,3.0,11.0,48,0.00,,---,0.39,VWS V14.00,2013-04-15 16:10:00,
2013-04-15 11:15:00,58.7,38.0,29.63,South,180,8.0,23.0,46,0.00,,---,0.39,VWS V14.00,2013-04-15 16:15:00,
2013-04-15 11:20:00,59.2,37.9,29.63,South,180,2.0,9.0,45,0.00,,---,0.39,VWS V14.00,2013-04-15 16:20:00,
2013-04-15 11:25:00,59.7,38.9,29.62,WSW,248,3.0,13.0,46,0.00,,---,0.39,VWS V14.00,2013-04-15 16:25:00,
2013-04-15 11:30:00,59.8,39.0,29.63,SW,225,4.0,13.0,46,0.00,,---,0.39,VWS V14.00,2013-04-15 16:30:00,
2013-04-15 11:35:00,60.4,39.0,29.63,SW,225,2.0,10.0,45,0.00,,---,0.39,VWS V14.00,2013-04-15 16:35:00,
2013-04-15 11:40:00,60.0,39.2,29.63,West,270,7.0,18.0,46,0.00,,---,0.39,VWS V14.00,2013-04-15 16:40:00,
2013-04-15 11:45:00,59.9,40.7,29.63,South,180,4.0,19.0,49,0.00,,---,0.39,VWS V14.00,2013-04-15 16:45:00,
2013-04-15 11:50:00,59.5,39.8,29.63,SSW,202,7.0,15.0,48,0.00,,---,0.39,VWS V14.00,2013-04-15 16:50:00,
2013-04-15 11:55:00,59.6,40.4,29.64,South,180,4.0,18.0,49,0.00,,---,0.39,VWS V14.00,2013-04-15 16:55:00,
2013-04-15 12:00:00,59.2,39.5,29.64,SSW,202,7.0,21.0,48,0.00,,---,0.39,VWS V14.00,2013-04-15 17:00:00,
2013-04-15 12:05:00,59.0,39.9,29.64,SSW,202,5.0,15.0,49,0.00,,---,0.39,VWS V14.00,2013-04-15 17:05:00,
2013-04-15 12:10:00,59.5,40.9,29.64,WNW,292,4.0,12.0,50,0.00,,---,0.39,VWS V14.00,2013-04-15 17:10:00,
2013-04-15 12:15:00,59.4,41.3,29.65,South,180,6.0,20.0,51,0.00,,---,0.39,VWS V14.00,2013-04-15 17:15:00,
2013-04-15 12:20:00,59.3,40.2,29.66,SSW,202,7.0,16.0,49,0.00,,---,0.39,VWS V14.00,2013-04-15 17:20:00,
2013-04-15 12:25:00,58.8,39.7,29.66,SSW,202,5.0,17.0,49,0.00,,---,0.39,VWS V14.00,2013-04-15 17:25:00,
2013-04-15 12:30:00,58.4,40.4,29.66,West,270,6.0,19.0,51,0.00,,---,0.39,VWS V14.00,2013-04-15 17:30:00,
2013-04-15 12:35:00,58.1,40.1,29.67,West,270,5.0,20.0,51,0.00,,---,0.39,VWS V14.00,2013-04-15 17:35:00,
2013-04-15 12:40:00,57.8,38.8,29.67,WNW,292,6.0,26.0,49,0.00,,---,0.39,VWS V14.00,2013-04-15 17:40:00,
2013-04-15 12:45:00,57.4,36.2,29.68,SSW,202,6.0,15.0,45,0.00,,---,0.39,VWS V14.00,2013-04-15 17:45:00,
2013-04-15 12:50:00,57.4,37.3,29.68,South,180,4.0,12.0,47,0.00,,---,0.39,VWS V14.00,2013-04-15 17:50:00,
2013-04-15 12:55:00,57.0,37.0,29.69,SSW,202,7.0,16.0,47,0.00,,---,0.39,VWS V14.00,2013-04-15 17:55:00,
2013-04-15 13:00:00,56.6,37.2,29.69,SSW,202,5.0,19.0,48,0.00,,---,0.39,VWS V14.00,2013-04-15 18:00:00,
2013-04-15 13:05:00,56.6,37.7,29.69,West,270,3.0,11.0,49,0.00,,---,0.39,VWS V14.00,2013-04-15 18:05:00,
2013-04-15 13:10:00,56.2,38.3,29.69,West,270,2.0,11.0,51,0.00,,---,0.39,VWS V14.00,2013-04-15 18:10:00,
2013-04-15 13:15:00,56.0,39.1,29.70,West,270,4.0,11.0,53,0.00,,---,0.39,VWS V14.00,2013-04-15 18:15:00,
2013-04-15 13:20:00,55.4,38.1,29.70,West,270,4.0,23.0,52,0.00,,---,0.39,VWS V14.00,2013-04-15 18:20:00,
2013-04-15 13:25:00,54.9,37.6,29.71,West,270,5.0,15.0,52,0.00,,---,0.39,VWS V14.00,2013-04-15 18:25:00,
2013-04-15 13:30:00,54.4,37.6,29.71,SSW,202,4.0,16.0,53,0.00,,---,0.39,VWS V14.00,2013-04-15 18:30:00,
2013-04-15 13:35:00,53.9,37.7,29.72,West,270,5.0,16.0,54,0.00,,---,0.39,VWS V14.00,2013-04-15 18:35:00,
2013-04-15 13:40:00,53.6,37.8,29.72,SSW,202,5.0,15.0,55,0.00,,---,0.39,VWS V14.00,2013-04-15 18:40:00,
2013-04-15 13:45:00,53.6,38.3,29.72,West,270,3.0,12.0,56,0.00,,---,0.39,VWS V14.00,2013-04-15 18:45:00,
2013-04-15 13:50:00,53.5,38.2,29.71,SW,225,3.0,10.0,56,0.00,,---,0.39,VWS V14.00,2013-04-15 18:50:00,
2013-04-15 13:55:00,53.4,38.6,29.71,WNW,292,1.0,5.0,57,0.00,,---,0.39,VWS V14.00,2013-04-15 18:55:00,
2013-04-15 14:00:00,53.1,38.7,29.72,WSW,248,1.0,8.0,58,0.00,,---,0.39,VWS V14.00,2013-04-15 19:00:00,
2013-04-15 14:05:00,52.8,38.5,29.72,West,270,2.0,10.0,58,0.00,,---,0.39,VWS V14.00,2013-04-15 19:05:00,
2013-04-15 14:10:00,52.6,38.7,29.73,WSW,248,3.0,13.0,59,0.00,,---,0.39,VWS V14.00,2013-04-15 19:10:00,
2013-04-15 14:15:00,51.8,40.0,29.73,West,270,4.0,18.0,64,0.00,,---,0.39,VWS V14.00,2013-04-15 19:15:00,
2013-04-15 14:20:00,50.9,39.6,29.73,WNW,292,3.0,11.0,65,0.00,,---,0.39,VWS V14.00,2013-04-15 19:20:00,
2013-04-15 14:25:00,50.1,40.0,29.72,West,270,3.0,10.0,68,0.00,,---,0.39,VWS V14.00,2013-04-15 19:25:00,
2013-04-15 14:30:00,49.5,40.5,29.73,NW,315,3.0,10.0,71,0.00,,---,0.39,VWS V14.00,2013-04-15 19:30:00,
2013-04-15 14:35:00,48.4,40.8,29.73,NW,315,3.0,14.0,75,0.01,,---,0.40,VWS V14.00,2013-04-15 19:35:00,
2013-04-15 14:40:00,47.2,40.7,29.74,West,270,4.0,22.0,78,0.01,,---,0.40,VWS V14.00,2013-04-15 19:40:00,
2013-04-15 14:45:00,46.6,40.8,29.74,WNW,292,5.0,19.0,80,0.01,,---,0.40,VWS V14.00,2013-04-15 19:45:00,
2013-04-15 14:50:00,46.2,41.0,29.75,West,270,3.0,11.0,82,0.01,,---,0.40,VWS V14.00,2013-04-15 19:50:00,
2013-04-15 14:55:00,46.0,41.1,29.75,NW,315,3.0,12.0,83,0.01,,---,0.40,VWS V14.00,2013-04-15 19:55:00,
2013-04-15 15:00:00,45.8,41.2,29.76,WNW,292,2.0,13.0,84,0.01,,---,0.40,VWS V14.00,2013-04-15 20:00:00,
2013-04-15 15:05:00,45.6,41.4,29.76,WNW,292,3.0,14.0,85,0.02,,---,0.41,VWS V14.00,2013-04-15 20:05:00,
2013-04-15 15:10:00,45.2,40.3,29.75,WNW,292,5.0,15.0,83,0.02,,---,0.41,VWS V14.00,2013-04-15 20:10:00,
2013-04-15 15:15:00,45.0,40.2,29.76,West,270,3.0,10.0,83,0.02,,---,0.41,VWS V14.00,2013-04-15 20:15:00,
2013-04-15 15:20:00,44.8,40.0,29.76,West,270,2.0,6.0,83,0.02,,---,0.41,VWS V14.00,2013-04-15 20:20:00,
2013-04-15 15:25:00,44.7,39.9,29.76,WNW,292,3.0,17.0,83,0.02,,---,0.41,VWS V14.00,2013-04-15 20:25:00,
2013-04-15 15:30:00,44.6,39.8,29.76,WNW,292,1.0,9.0,83,0.02,,---,0.41,VWS V14.00,2013-04-15 20:30:00,
2013-04-15 15:35:00,44.5,40.0,29.76,NW,315,1.0,8.0,84,0.02,,---,0.41,VWS V14.00,2013-04-15 20:35:00,
2013-04-15 15:40:00,44.4,39.9,29.76,WNW,292,1.0,7.0,84,0.02,,---,0.42,VWS V14.00,2013-04-15 20:40:00,
2013-04-15 15:45:00,44.1,39.6,29.76,West,270,2.0,9.0,84,0.02,,---,0.42,VWS V14.00,2013-04-15 20:45:00,
2013-04-15 15:50:00,43.8,39.6,29.76,WNW,292,2.0,12.0,85,0.02,,---,0.42,VWS V14.00,2013-04-15 20:50:00,
2013-04-15 15:55:00,43.6,39.4,29.77,WNW,292,4.0,15.0,85,0.02,,---,0.42,VWS V14.00,2013-04-15 20:55:00,
2013-04-15 16:00:00,43.4,39.5,29.77,WSW,248,2.0,9.0,86,0.02,,---,0.42,VWS V14.00,2013-04-15 21:00:00,
2013-04-15 16:05:00,43.2,39.0,29.77,West,270,3.0,11.0,85,0.02,,---,0.42,VWS V14.00,2013-04-15 21:05:00,
2013-04-15 16:10:00,43.1,39.2,29.78,West,270,2.0,6.0,86,0.02,,---,0.43,VWS V14.00,2013-04-15 21:10:00,
2013-04-15 16:15:00,42.9,39.0,29.77,South,180,2.0,7.0,86,0.03,,---,0.44,VWS V14.00,2013-04-15 21:15:00,
2013-04-15 16:20:00,42.8,39.2,29.78,SSW,202,1.0,6.0,87,0.03,,---,0.44,VWS V14.00,2013-04-15 21:20:00,
2013-04-15 16:25:00,42.6,39.0,29.78,West,270,1.0,6.0,87,0.05,,---,0.46,VWS V14.00,2013-04-15 21:25:00,
2013-04-15 16:30:00,42.4,38.8,29.78,West,270,2.0,6.0,87,0.06,,---,0.47,VWS V14.00,2013-04-15 21:30:00,
2013-04-15 16:35:00,42.3,39.0,29.77,West,270,1.0,11.0,88,0.06,,---,0.47,VWS V14.00,2013-04-15 21:35:00,
2013-04-15 16:40:00,42.2,38.9,29.78,South,180,2.0,9.0,88,0.06,,---,0.47,VWS V14.00,2013-04-15 21:40:00,
2013-04-15 16:45:00,42.1,38.8,29.78,WNW,292,2.0,9.0,88,0.06,,---,0.48,VWS V14.00,2013-04-15 21:45:00,
2013-04-15 16:50:00,42.2,39.2,29.77,West,270,1.0,4.0,89,0.06,,---,0.48,VWS V14.00,2013-04-15 21:50:00,
2013-04-15 16:55:00,42.1,39.1,29.77,SSW,202,2.0,6.0,89,0.07,,---,0.49,VWS V14.00,2013-04-15 21:55:00,
2013-04-15 17:00:00,42.1,39.1,29.77,West,270,1.0,6.0,89,0.07,,---,0.49,VWS V14.00,2013-04-15 22:00:00,
2013-04-15 17:05:00,42.2,39.2,29.76,West,270,1.0,5.0,89,0.07,,---,0.49,VWS V14.00,2013-04-15 22:05:00,
2013-04-15 17:10:00,42.2,39.2,29.76,West,270,1.0,4.0,89,0.07,,---,0.49,VWS V14.00,2013-04-15 22:10:00,
2013-04-15 17:15:00,42.4,39.1,29.76,WSW,248,1.0,4.0,88,0.06,,---,0.49,VWS V14.00,2013-04-15 22:15:00,
2013-04-15 17:20:00,42.7,39.4,29.76,West,270,1.0,4.0,88,0.05,,---,0.49,VWS V14.00,2013-04-15 22:20:00,
2013-04-15 17:25:00,42.7,39.1,29.76,SSW,202,3.0,7.0,87,0.05,,---,0.49,VWS V14.00,2013-04-15 22:25:00,
2013-04-15 17:30:00,43.0,39.4,29.76,SSW,202,2.0,7.0,87,0.03,,---,0.49,VWS V14.00,2013-04-15 22:30:00,
2013-04-15 17:35:00,43.3,39.4,29.75,SSW,202,1.0,4.0,86,0.02,,---,0.49,VWS V14.00,2013-04-15 22:35:00,
2013-04-15 17:40:00,43.5,39.6,29.75,West,270,1.0,3.0,86,0.02,,---,0.49,VWS V14.00,2013-04-15 22:40:00,
2013-04-15 17:45:00,43.6,39.7,29.75,South,180,2.0,4.0,86,0.02,,---,0.49,VWS V14.00,2013-04-15 22:45:00,
2013-04-15 17:50:00,43.6,39.4,29.76,South,180,2.0,6.0,85,0.01,,---,0.49,VWS V14.00,2013-04-15 22:50:00,
2013-04-15 17:55:00,44.0,39.8,29.76,SSW,202,1.0,4.0,85,0.01,,---,0.49,VWS V14.00,2013-04-15 22:55:00,
2013-04-15 18:00:00,44.3,40.1,29.76,West,270,0.0,4.0,85,0.00,,---,0.49,VWS V14.00,2013-04-15 23:00:00,
2013-04-15 18:05:00,44.2,39.7,29.77,SSW,202,2.0,6.0,84,0.00,,---,0.49,VWS V14.00,2013-04-15 23:05:00,
2013-04-15 18:10:00,44.0,38.9,29.76,South,180,2.0,6.0,82,0.00,,---,0.49,VWS V14.00,2013-04-15 23:10:00,
2013-04-15 18:15:00,43.8,38.7,29.77,SW,225,1.0,4.0,82,0.00,,---,0.49,VWS V14.00,2013-04-15 23:15:00,
2013-04-15 18:20:00,43.8,39.0,29.77,NW,315,1.0,4.0,83,0.00,,---,0.49,VWS V14.00,2013-04-15 23:20:00,
2013-04-15 18:25:00,43.8,39.0,29.77,WSW,248,1.0,5.0,83,0.00,,---,0.49,VWS V14.00,2013-04-15 23:25:00,
2013-04-15 18:30:00,43.7,38.9,29.77,SSW,202,0.0,3.0,83,0.00,,---,0.49,VWS V14.00,2013-04-15 23:30:00,
2013-04-15 18:35:00,43.7,38.9,29.76,SSW,202,0.0,1.0,83,0.00,,---,0.49,VWS V14.00,2013-04-15 23:35:00,
2013-04-15 18:40:00,43.7,38.9,29.76,SSW,202,0.0,2.0,83,0.00,,---,0.49,VWS V14.00,2013-04-15 23:40:00,
2013-04-15 18:45:00,43.7,38.9,29.77,SSW,202,0.0,3.0,83,0.00,,---,0.49,VWS V14.00,2013-04-15 23:45:00,
2013-04-15 18:50:00,43.6,39.1,29.77,SSW,202,0.0,2.0,84,0.00,,---,0.49,VWS V14.00,2013-04-15 23:50:00,
2013-04-15 18:55:00,43.6,38.8,29.76,SSW,202,0.0,2.0,83,0.00,,---,0.49,VWS V14.00,2013-04-15 23:55:00,
2013-04-15 19:00:00,43.6,38.8,29.77,SSW,202,1.0,3.0,83,0.00,,---,0.49,VWS V14.00,2013-04-16 00:00:00,
2013-04-15 19:05:00,43.6,38.8,29.77,SSW,202,0.0,3.0,83,0.00,,---,0.49,VWS V14.00,2013-04-16 00:05:00,
2013-04-15 19:10:00,43.5,38.7,29.77,SSW,202,1.0,4.0,83,0.00,,---,0.49,VWS V14.00,2013-04-16 00:10:00,
2013-04-15 19:15:00,43.4,38.6,29.76,SSW,202,1.0,6.0,83,0.00,,---,0.49,VWS V14.00,2013-04-16 00:15:00,
2013-04-15 19:20:00,43.4,38.6,29.76,South,180,1.0,4.0,83,0.00,,---,0.49,VWS V14.00,2013-04-16 00:20:00,
2013-04-15 19:29:00,43.4,38.6,29.76,South,180,1.0,4.0,83,0.00,,---,0.49,VWS V14.00,2013-04-16 00:29:00,
2013-04-15 19:30:00,43.3,38.5,29.76,West,269,0.0,1.0,83,0.00,,---,0.48,VWS V14.00,2013-04-16 00:30:00,
2013-04-15 19:34:00,43.3,38.5,29.77,West,269,0.0,2.0,83,0.00,,---,0.48,VWS V14.00,2013-04-16 00:34:00,
2013-04-15 19:35:00,43.3,38.5,29.77,West,269,0.0,2.0,83,0.00,,---,0.48,VWS V14.00,2013-04-16 00:35:00,
2013-04-15 19:39:00,43.3,38.5,29.77,WSW,258,1.0,4.0,83,0.00,,---,0.48,VWS V14.00,2013-04-16 00:39:00,
2013-04-15 19:40:00,43.3,38.5,29.77,WSW,258,1.0,4.0,83,0.00,,---,0.48,VWS V14.00,2013-04-16 00:40:00,
2013-04-15 19:44:00,43.2,38.4,29.77,WSW,253,0.0,2.0,83,0.00,,---,0.48,VWS V14.00,2013-04-16 00:44:00,
2013-04-15 19:45:00,43.2,38.4,29.77,WSW,254,2.0,2.0,83,0.00,,---,0.48,VWS V14.00,2013-04-16 00:45:00,
2013-04-15 19:49:00,43.2,38.1,29.77,WSW,251,1.0,3.0,82,0.00,,---,0.48,VWS V14.00,2013-04-16 00:49:00,
2013-04-15 19:50:00,43.2,38.1,29.77,WSW,250,0.0,3.0,82,0.00,,---,0.48,VWS V14.00,2013-04-16 00:50:00,
2013-04-15 19:54:00,43.1,38.3,29.77,SW,232,0.0,2.0,83,0.00,,---,0.48,VWS V14.00,2013-04-16 00:54:00,
2013-04-15 19:55:00,43.1,38.3,29.77,SW,232,0.0,2.0,83,0.00,,---,0.48,VWS V14.00,2013-04-16 00:55:00,
2013-04-15 19:59:00,43.1,38.3,29.77,SW,233,0.0,3.0,83,0.00,,---,0.48,VWS V14.00,2013-04-16 00:59:00,
2013-04-15 20:00:00,43.1,38.3,29.77,SW,233,0.0,3.0,83,0.00,,---,0.48,VWS V14.00,2013-04-16 01:00:00,
2013-04-15 20:05:00,43.0,38.2,29.77,West,274,2.0,3.0,83,0.00,,---,0.48,VWS V14.00,2013-04-16 01:05:00,
2013-04-15 20:10:00,43.0,38.2,29.78,West,274,0.0,2.0,83,0.00,,---,0.48,VWS V14.00,2013-04-16 01:10:00,
2013-04-15 20:14:00,42.9,38.1,29.78,WSW,248,1.0,5.0,83,0.00,,---,0.48,VWS V14.00,2013-04-16 01:14:00,
2013-04-15 20:15:00,42.9,38.1,29.78,WSW,248,1.0,5.0,83,0.00,,---,0.48,VWS V14.00,2013-04-16 01:15:00,
2013-04-15 20:20:00,42.8,38.3,29.78,WSW,248,0.0,2.0,84,0.00,,---,0.48,VWS V14.00,2013-04-16 01:20:00,
2013-04-15 20:25:00,42.8,38.3,29.78,WSW,248,0.0,2.0,84,0.00,,---,0.48,VWS V14.00,2013-04-16 01:25:00,
2013-04-15 20:30:00,42.7,38.2,29.78,WSW,248,2.0,2.0,84,0.00,,---,0.48,VWS V14.00,2013-04-16 01:30:00,
2013-04-15 20:35:00,42.7,38.2,29.78,WSW,248,0.0,2.0,84,0.00,,---,0.48,VWS V14.00,2013-04-16 01:35:00,
2013-04-15 20:40:00,42.6,38.1,29.79,WSW,248,0.0,0.0,84,0.00,,---,0.48,VWS V14.00,2013-04-16 01:40:00,
2013-04-15 20:45:00,42.5,38.3,29.79,WSW,248,0.0,1.0,85,0.00,,---,0.48,VWS V14.00,2013-04-16 01:45:00,
2013-04-15 20:50:00,42.5,38.3,29.80,WSW,248,1.0,1.0,85,0.00,,---,0.48,VWS V14.00,2013-04-16 01:50:00,
2013-04-15 20:55:00,42.5,38.0,29.80,SSW,196,0.0,4.0,84,0.00,,---,0.48,VWS V14.00,2013-04-16 01:55:00,
2013-04-15 21:00:00,42.5,38.0,29.80,WSW,241,2.0,3.0,84,0.00,,---,0.48,VWS V14.00,2013-04-16 02:00:00,
2013-04-15 21:05:00,42.6,38.1,29.80,West,278,0.0,0.0,84,0.00,,---,0.48,VWS V14.00,2013-04-16 02:05:00,
2013-04-15 21:10:00,42.6,38.1,29.81,South,189,1.0,1.0,84,0.00,,---,0.48,VWS V14.00,2013-04-16 02:10:00,
2013-04-15 21:15:00,42.6,38.1,29.81,South,191,3.0,3.0,84,0.00,,---,0.48,VWS V14.00,2013-04-16 02:15:00,
2013-04-15 21:20:00,42.6,38.1,29.82,SSW,192,0.0,0.0,84,0.00,,---,0.48,VWS V14.00,2013-04-16 02:20:00,
2013-04-15 21:25:00,42.7,38.2,29.82,South,191,0.0,0.0,84,0.00,,---,0.48,VWS V14.00,2013-04-16 02:25:00,
2013-04-15 21:30:00,42.6,38.1,29.83,West,269,0.0,1.0,84,0.00,,---,0.48,VWS V14.00,2013-04-16 02:30:00,
2013-04-15 21:35:00,42.6,38.1,29.83,West,269,1.0,1.0,84,0.00,,---,0.48,VWS V14.00,2013-04-16 02:35:00,
2013-04-15 21:40:00,42.5,38.0,29.83,West,259,0.0,2.0,84,0.00,,---,0.48,VWS V14.00,2013-04-16 02:40:00,
2013-04-15 21:45:00,42.5,38.0,29.84,WSW,249,0.0,0.0,84,0.00,,---,0.48,VWS V14.00,2013-04-16 02:45:00,
2013-04-15 21:50:00,42.6,38.1,29.84,West,279,2.0,4.0,84,0.00,,---,0.48,VWS V14.00,2013-04-16 02:50:00,
2013-04-15 21:55:00,42.6,38.1,29.84,West,279,1.0,1.0,84,0.00,,---,0.48,VWS V14.00,2013-04-16 02:55:00,
2013-04-15 22:00:00,42.5,38.0,29.83,West,280,0.0,1.0,84,0.00,,---,0.48,VWS V14.00,2013-04-16 03:00:00,
2013-04-15 22:05:00,42.4,38.2,29.84,West,271,0.0,0.0,85,0.00,,---,0.48,VWS V14.00,2013-04-16 03:05:00,
2013-04-15 22:10:00,42.4,37.9,29.83,West,269,0.0,0.0,84,0.00,,---,0.48,VWS V14.00,2013-04-16 03:10:00,
2013-04-15 22:15:00,42.3,37.8,29.84,West,271,0.0,0.0,84,0.00,,---,0.48,VWS V14.00,2013-04-16 03:15:00,
2013-04-15 22:20:00,42.2,37.7,29.84,West,271,0.0,0.0,84,0.00,,---,0.48,VWS V14.00,2013-04-16 03:20:00,
2013-04-15 22:25:00,42.0,37.5,29.84,West,271,0.0,0.0,84,0.00,,---,0.48,VWS V14.00,2013-04-16 03:25:00,
2013-04-15 22:30:00,41.8,37.6,29.84,West,271,0.0,1.0,85,0.00,,---,0.48,VWS V14.00,2013-04-16 03:30:00,
2013-04-15 22:35:00,41.6,37.4,29.85,West,271,2.0,2.0,85,0.00,,---,0.48,VWS V14.00,2013-04-16 03:35:00,
2013-04-15 22:40:00,41.5,37.3,29.85,West,271,0.0,0.0,85,0.00,,---,0.48,VWS V14.00,2013-04-16 03:40:00,
2013-04-15 22:45:00,41.4,37.5,29.85,West,271,0.0,2.0,86,0.00,,---,0.48,VWS V14.00,2013-04-16 03:45:00,
2013-04-15 22:50:00,41.4,37.5,29.85,West,271,0.0,0.0,86,0.00,,---,0.48,VWS V14.00,2013-04-16 03:50:00,
2013-04-15 22:55:00,41.4,37.5,29.85,West,271,1.0,1.0,86,0.00,,---,0.48,VWS V14.00,2013-04-16 03:55:00,
2013-04-15 23:00:00,41.4,37.5,29.85,West,271,0.0,2.0,86,0.00,,---,0.48,VWS V14.00,2013-04-16 04:00:00,
2013-04-15 23:05:00,41.3,37.4,29.85,West,271,0.0,0.0,86,0.00,,---,0.48,VWS V14.00,2013-04-16 04:05:00,
2013-04-15 23:10:00,41.2,37.3,29.85,West,271,0.0,0.0,86,0.00,,---,0.48,VWS V14.00,2013-04-16 04:10:00,
2013-04-15 23:15:00,40.9,37.0,29.85,West,271,0.0,0.0,86,0.00,,---,0.48,VWS V14.00,2013-04-16 04:15:00,
2013-04-15 23:20:00,40.7,36.8,29.85,West,271,0.0,0.0,86,0.00,,---,0.48,VWS V14.00,2013-04-16 04:20:00,
2013-04-15 23:25:00,40.3,36.5,29.85,West,271,0.0,0.0,86,0.00,,---,0.48,VWS V14.00,2013-04-16 04:25:00,
2013-04-15 23:30:00,40.1,36.3,29.86,West,271,0.0,0.0,86,0.00,,---,0.48,VWS V14.00,2013-04-16 04:30:00,
2013-04-15 23:35:00,40.0,36.5,29.86,West,271,0.0,0.0,87,0.00,,---,0.48,VWS V14.00,2013-04-16 04:35:00,
2013-04-15 23:40:00,40.0,36.5,29.86,West,271,0.0,0.0,87,0.00,,---,0.48,VWS V14.00,2013-04-16 04:40:00,
2013-04-15 23:45:00,40.0,36.5,29.86,West,271,0.0,0.0,87,0.00,,---,0.48,VWS V14.00,2013-04-16 04:45:00,
2013-04-15 23:50:00,39.8,36.0,29.87,West,271,0.0,0.0,86,0.00,,---,0.48,VWS V14.00,2013-04-16 04:50:00,
2013-04-15 23:55:00,39.8,35.4,29.87,WNW,284,0.0,0.0,84,0.00,,---,0.48,VWS V14.00,2013-04-16 04:55:00,